Time;durP1;ratioP1;P1;durP2;ratioP2;P2;SDS_P1;SDS_P2;PMS_P1;PMS_P2;Temp;Humidity;BMP_temperature;BMP_pressure;BME280_temperature;BME280_humidity;BME280_pressure;Samples;Min_cycle;Max_cycle;Signal;HPM_P1;HPM_P2
2022/05/04 00:00:37;;;;;;;16.88;4.50;;;;;;;;;;5016134;28;93857;-78
2022/05/04 00:03:04;;;;;;;10.90;3.75;;;;;;;;;;5008840;28;94135;-77
2022/05/04 00:05:31;;;;;;;13.32;3.67;;;;;;;;;;5008772;28;94725;-77
2022/05/04 00:07:57;;;;;;;21.77;3.92;;;;;;;;;;5013054;28;94774;-77
2022/05/04 00:10:24;;;;;;;14.63;4.28;;;;;;;;;;5012397;28;93838;-77
2022/05/04 00:12:50;;;;;;;7.95;2.80;;;;;;;;;;5015396;28;94162;-77
2022/05/04 00:15:17;;;;;;;10.98;3.03;;;;;;;;;;5017787;28;93272;-77
2022/05/04 00:17:43;;;;;;;17.08;3.60;;;;;;;;;;5010287;28;93776;-77
2022/05/04 00:20:10;;;;;;;10.05;2.75;;;;;;;;;;5023212;28;94091;-77
2022/05/04 00:22:36;;;;;;;12.60;2.90;;;;;;;;;;5010784;28;96078;-77
2022/05/04 00:25:03;;;;;;;18.38;3.50;;;;;;;;;;5013910;27;94287;-77
2022/05/04 00:27:29;;;;;;;10.65;3.45;;;;;;;;;;5013232;28;92556;-77
2022/05/04 00:29:56;;;;;;;11.07;2.95;;;;;;;;;;5003664;28;95424;-77
2022/05/04 00:32:22;;;;;;;9.95;3.67;;;;;;;;;;5011350;28;94528;-78
2022/05/04 00:34:48;;;;;;;16.98;3.88;;;;;;;;;;5017767;28;94241;-78
2022/05/04 00:37:15;;;;;;;8.43;3.15;;;;;;;;;;5011051;28;93989;-78
2022/05/04 00:39:41;;;;;;;16.27;3.40;;;;;;;;;;5010872;28;93327;-78
2022/05/04 00:42:07;;;;;;;11.68;3.17;;;;;;;;;;5016870;28;93959;-77
2022/05/04 00:44:34;;;;;;;14.45;3.10;;;;;;;;;;5013467;28;94068;-78
2022/05/04 00:47:00;;;;;;;14.32;3.30;;;;;;;;;;5011047;28;95881;-78
2022/05/04 00:49:27;;;;;;;9.95;3.42;;;;;;;;;;5017680;28;96297;-78
2022/05/04 00:51:53;;;;;;;13.30;3.17;;;;;;;;;;5016385;28;94749;-78
2022/05/04 00:54:19;;;;;;;12.57;3.90;;;;;;;;;;5009928;28;94659;-77
2022/05/04 00:56:46;;;;;;;12.23;3.60;;;;;;;;;;5016053;28;94838;-77
2022/05/04 00:59:12;;;;;;;14.52;3.85;;;;;;;;;;5017807;28;94605;-78
2022/05/04 01:01:39;;;;;;;13.38;3.65;;;;;;;;;;5014949;28;94848;-78
2022/05/04 01:04:05;;;;;;;13.50;4.15;;;;;;;;;;5016708;28;94166;-78
2022/05/04 01:06:33;;;;;;;15.20;3.50;;;;;;;;;;5014646;28;94199;-78
2022/05/04 01:08:59;;;;;;;13.30;4.30;;;;;;;;;;5016365;28;95603;-77
2022/05/04 01:11:26;;;;;;;8.32;2.95;;;;;;;;;;5014889;28;96683;-78
2022/05/04 01:14:02;;;;;;;9.55;4.03;;;;;;;;;;5013029;28;94603;-78
2022/05/04 01:16:29;;;;;;;13.65;3.60;;;;;;;;;;5021550;28;93703;-78
2022/05/04 01:18:56;;;;;;;9.50;3.22;;;;;;;;;;5014026;28;93526;-77
2022/05/04 01:21:22;;;;;;;16.98;3.72;;;;;;;;;;5010708;28;94155;-77
2022/05/04 01:23:49;;;;;;;17.20;3.72;;;;;;;;;;5019432;28;93992;-77
2022/05/04 01:26:18;;;;;;;15.27;4.07;;;;;;;;;;5021395;28;93774;-77
2022/05/04 01:28:45;;;;;;;12.85;3.33;;;;;;;;;;5014048;28;92255;-77
2022/05/04 01:31:12;;;;;;;16.65;4.32;;;;;;;;;;5010810;28;94885;-77
2022/05/04 01:33:39;;;;;;;6.57;3.05;;;;;;;;;;5012183;28;92727;-78
2022/05/04 01:36:06;;;;;;;14.73;4.18;;;;;;;;;;5014645;28;95779;-78
2022/05/04 01:38:33;;;;;;;12.60;4.00;;;;;;;;;;5009209;28;93400;-78
2022/05/04 01:41:00;;;;;;;10.32;3.70;;;;;;;;;;5011069;28;93810;-78
2022/05/04 01:43:26;;;;;;;12.27;3.90;;;;;;;;;;5009850;28;94591;-78
2022/05/04 01:45:52;;;;;;;11.48;3.85;;;;;;;;;;5014265;28;94590;-77
2022/05/04 01:48:20;;;;;;;9.48;3.60;;;;;;;;;;5022226;28;93999;-78
2022/05/04 01:50:46;;;;;;;12.35;4.10;;;;;;;;;;5011236;28;93270;-77
2022/05/04 01:53:13;;;;;;;8.38;3.40;;;;;;;;;;5012364;28;93131;-78
2022/05/04 01:55:40;;;;;;;7.78;3.50;;;;;;;;;;5012992;28;92655;-78
2022/05/04 01:58:07;;;;;;;13.18;3.88;;;;;;;;;;5009534;28;94155;-78
2022/05/04 02:00:34;;;;;;;12.40;3.55;;;;;;;;;;5011697;28;95447;-78
2022/05/04 02:03:00;;;;;;;9.70;3.95;;;;;;;;;;5013224;28;96352;-78
2022/05/04 02:05:27;;;;;;;9.45;3.30;;;;;;;;;;5018536;27;94332;-77
2022/05/04 02:07:54;;;;;;;14.25;3.42;;;;;;;;;;5015331;28;93186;-78
2022/05/04 02:10:20;;;;;;;13.75;3.55;;;;;;;;;;5013415;28;94696;-78
2022/05/04 02:12:46;;;;;;;7.32;3.28;;;;;;;;;;5012650;28;94756;-77
2022/05/04 02:15:13;;;;;;;8.10;3.25;;;;;;;;;;5010837;28;93958;-77
2022/05/04 02:17:39;;;;;;;9.55;3.55;;;;;;;;;;5012083;28;94022;-77
2022/05/04 02:20:06;;;;;;;12.15;3.80;;;;;;;;;;5013097;28;93812;-78
2022/05/04 02:22:32;;;;;;;14.40;3.72;;;;;;;;;;5012327;28;93948;-78
2022/05/04 02:24:59;;;;;;;7.13;3.63;;;;;;;;;;5011359;28;96608;-78
2022/05/04 02:27:25;;;;;;;11.50;3.80;;;;;;;;;;5007810;28;95481;-78
2022/05/04 02:29:51;;;;;;;19.58;3.83;;;;;;;;;;5013235;28;93051;-78
2022/05/04 02:32:18;;;;;;;9.88;3.42;;;;;;;;;;5011390;28;93370;-78
2022/05/04 02:40:14;;;;;;;11.82;3.95;;;;;;;;;;5011304;28;92595;-78
2022/05/04 02:42:41;;;;;;;11.43;3.67;;;;;;;;;;5014467;28;93835;-78
2022/05/04 02:45:07;;;;;;;12.63;4.45;;;;;;;;;;5015692;28;94231;-78
2022/05/04 02:47:34;;;;;;;15.63;4.57;;;;;;;;;;5011503;28;94032;-78
2022/05/04 02:50:00;;;;;;;9.75;3.40;;;;;;;;;;5011162;28;96170;-78
2022/05/04 02:52:26;;;;;;;9.00;3.72;;;;;;;;;;5017060;28;93430;-78
2022/05/04 02:54:52;;;;;;;15.02;4.25;;;;;;;;;;5007643;28;93970;-78
2022/05/04 02:57:19;;;;;;;19.60;4.50;;;;;;;;;;5011757;28;94232;-78
2022/05/04 02:59:45;;;;;;;23.35;4.13;;;;;;;;;;5010493;28;93760;-78
2022/05/04 03:02:30;;;;;;;6.65;3.50;;;;;;;;;;5011178;28;94040;-78
2022/05/04 03:04:57;;;;;;;9.20;3.90;;;;;;;;;;5010622;28;94280;-78
2022/05/04 03:07:23;;;;;;;19.08;4.40;;;;;;;;;;5012529;28;94619;-78
2022/05/04 03:09:49;;;;;;;10.95;4.03;;;;;;;;;;5014057;28;93253;-78
2022/05/04 03:12:16;;;;;;;11.25;3.25;;;;;;;;;;5007472;28;94042;-78
2022/05/04 03:14:43;;;;;;;14.95;3.90;;;;;;;;;;5010555;27;96808;-78
2022/05/04 03:17:10;;;;;;;10.45;3.72;;;;;;;;;;5014056;28;93362;-78
2022/05/04 03:19:36;;;;;;;16.65;4.50;;;;;;;;;;5012877;28;94586;-78
2022/05/04 03:22:03;;;;;;;12.73;3.92;;;;;;;;;;5009899;28;94018;-78
2022/05/04 03:24:29;;;;;;;12.25;4.43;;;;;;;;;;5014680;28;94962;-78
2022/05/04 03:26:55;;;;;;;14.35;4.60;;;;;;;;;;5016816;28;93648;-78
2022/05/04 03:29:22;;;;;;;9.52;4.20;;;;;;;;;;5012732;28;94029;-78
2022/05/04 03:31:48;;;;;;;9.52;4.15;;;;;;;;;;5010535;28;93463;-78
2022/05/04 03:34:15;;;;;;;16.45;4.20;;;;;;;;;;5018004;28;92614;-78
2022/05/04 03:36:41;;;;;;;12.95;4.32;;;;;;;;;;5015530;28;95612;-78
2022/05/04 03:39:08;;;;;;;10.10;4.38;;;;;;;;;;5008603;28;95477;-78
2022/05/04 03:41:34;;;;;;;10.23;4.32;;;;;;;;;;5013044;28;96384;-78
2022/05/04 03:44:01;;;;;;;16.02;4.50;;;;;;;;;;5012382;28;94057;-79
2022/05/04 03:46:28;;;;;;;14.60;4.85;;;;;;;;;;5015637;28;93931;-78
2022/05/04 03:48:55;;;;;;;9.90;4.53;;;;;;;;;;5012585;28;93660;-78
2022/05/04 03:51:22;;;;;;;12.68;4.55;;;;;;;;;;5009495;28;94851;-78
2022/05/04 03:53:49;;;;;;;12.38;4.13;;;;;;;;;;5014711;28;93404;-78
2022/05/04 03:56:16;;;;;;;12.75;4.55;;;;;;;;;;5014818;28;94141;-78
2022/05/04 03:58:43;;;;;;;11.95;4.43;;;;;;;;;;5011492;28;94374;-78
2022/05/04 04:01:09;;;;;;;8.55;3.38;;;;;;;;;;5011909;28;93081;-78
2022/05/04 04:03:36;;;;;;;9.70;3.65;;;;;;;;;;5010839;28;97647;-78
2022/05/04 04:06:03;;;;;;;9.68;3.92;;;;;;;;;;5011342;28;93888;-78
2022/05/04 04:08:29;;;;;;;10.63;4.20;;;;;;;;;;5012557;28;94708;-78
2022/05/04 04:10:57;;;;;;;13.90;4.85;;;;;;;;;;5014718;28;94257;-78
2022/05/04 04:13:23;;;;;;;17.83;4.28;;;;;;;;;;5018349;28;92514;-78
2022/05/04 04:15:51;;;;;;;13.45;4.78;;;;;;;;;;5012694;28;94156;-78
2022/05/04 04:18:19;;;;;;;13.25;4.15;;;;;;;;;;5016619;27;94030;-78
2022/05/04 04:23:31;;;;;;;12.93;4.70;;;;;;;;;;5014822;28;94400;-78
2022/05/04 04:25:58;;;;;;;14.90;5.20;;;;;;;;;;5009632;27;94036;-78
2022/05/04 04:28:24;;;;;;;16.88;4.88;;;;;;;;;;5012730;28;97637;-77
2022/05/04 04:30:51;;;;;;;12.18;4.10;;;;;;;;;;5014950;28;93911;-77
2022/05/04 04:33:17;;;;;;;13.20;4.60;;;;;;;;;;5012855;28;93344;-77
2022/05/04 04:35:43;;;;;;;15.27;4.30;;;;;;;;;;5015214;28;93157;-77
2022/05/04 04:38:10;;;;;;;19.08;4.57;;;;;;;;;;5012813;28;94082;-77
2022/05/04 04:40:36;;;;;;;16.08;4.03;;;;;;;;;;5015022;28;92899;-77
2022/05/04 04:43:02;;;;;;;13.90;4.57;;;;;;;;;;5016922;28;94174;-77
2022/05/04 04:45:30;;;;;;;16.33;5.38;;;;;;;;;;5016731;28;91853;-77
2022/05/04 04:47:56;;;;;;;16.17;4.53;;;;;;;;;;5013778;28;94150;-78
2022/05/04 04:50:23;;;;;;;14.18;4.88;;;;;;;;;;5008955;28;94021;-78
2022/05/04 04:52:49;;;;;;;14.43;4.70;;;;;;;;;;5013272;28;96856;-77
2022/05/04 04:55:16;;;;;;;14.75;5.60;;;;;;;;;;5012868;28;96424;-77
2022/05/04 04:57:43;;;;;;;7.75;4.10;;;;;;;;;;5014534;28;94579;-78
2022/05/04 05:00:10;;;;;;;17.17;5.10;;;;;;;;;;5013112;28;93694;-78
2022/05/04 05:02:36;;;;;;;12.27;5.25;;;;;;;;;;5019740;28;94485;-78
2022/05/04 05:05:03;;;;;;;12.50;4.60;;;;;;;;;;5011903;28;92654;-78
2022/05/04 05:07:35;;;;;;;19.93;4.57;;;;;;;;;;5009830;28;94992;-78
2022/05/04 05:10:02;;;;;;;10.13;4.28;;;;;;;;;;5018264;28;91777;-78
2022/05/04 05:12:28;;;;;;;16.45;4.68;;;;;;;;;;5012360;28;94231;-78
2022/05/04 05:17:39;;;;;;;9.90;4.20;;;;;;;;;;5012055;28;97078;-78
2022/05/04 05:20:06;;;;;;;13.73;4.07;;;;;;;;;;5012485;28;93565;-78
2022/05/04 05:22:32;;;;;;;19.10;4.70;;;;;;;;;;5008008;28;93937;-78
2022/05/04 05:24:59;;;;;;;17.15;5.18;;;;;;;;;;5011344;28;94640;-78
2022/05/04 05:27:25;;;;;;;21.45;7.90;;;;;;;;;;5014130;28;93919;-78
2022/05/04 05:29:51;;;;;;;7.90;4.00;;;;;;;;;;5014410;28;94396;-78
2022/05/04 05:32:18;;;;;;;19.80;4.28;;;;;;;;;;5013490;28;94822;-78
2022/05/04 05:34:45;;;;;;;10.50;3.95;;;;;;;;;;5014547;28;94027;-78
2022/05/04 05:37:11;;;;;;;13.88;4.45;;;;;;;;;;5011666;28;94850;-78
2022/05/04 05:39:37;;;;;;;15.52;4.57;;;;;;;;;;5014548;28;93479;-77
2022/05/04 05:42:04;;;;;;;14.85;4.97;;;;;;;;;;5009580;28;95431;-77
2022/05/04 05:44:30;;;;;;;13.93;4.50;;;;;;;;;;5016255;28;94311;-77
2022/05/04 05:47:04;;;;;;;12.38;4.30;;;;;;;;;;5013018;28;93932;-77
2022/05/04 05:49:31;;;;;;;14.30;4.30;;;;;;;;;;5013023;28;94151;-76
2022/05/04 05:51:57;;;;;;;14.20;4.65;;;;;;;;;;5013815;28;92551;-76
2022/05/04 05:54:24;;;;;;;16.35;4.30;;;;;;;;;;5016353;28;93917;-77
2022/05/04 05:56:51;;;;;;;6.00;3.55;;;;;;;;;;5012600;28;94832;-76
2022/05/04 05:59:17;;;;;;;13.02;4.30;;;;;;;;;;5014483;28;93347;-76
2022/05/04 06:01:43;;;;;;;8.07;3.50;;;;;;;;;;5010435;28;93290;-76
2022/05/04 06:04:10;;;;;;;8.13;3.58;;;;;;;;;;5013404;28;94485;-76
2022/05/04 06:06:37;;;;;;;11.70;3.38;;;;;;;;;;5037364;27;95024;-75
2022/05/04 06:09:03;;;;;;;14.80;3.88;;;;;;;;;;5019316;27;93618;-76
2022/05/04 06:11:31;;;;;;;7.72;3.50;;;;;;;;;;5016979;28;92864;-77
2022/05/04 06:13:57;;;;;;;7.70;3.75;;;;;;;;;;5026577;28;93574;-78
2022/05/04 06:16:23;;;;;;;21.65;3.65;;;;;;;;;;5033968;28;94236;-75
2022/05/04 06:18:50;;;;;;;12.20;4.30;;;;;;;;;;5014630;28;92451;-77
2022/05/04 06:21:16;;;;;;;9.65;3.00;;;;;;;;;;5013435;28;93658;-77
2022/05/04 06:23:42;;;;;;;13.93;3.50;;;;;;;;;;5024312;28;92441;-78
2022/05/04 06:26:09;;;;;;;15.23;3.42;;;;;;;;;;5017029;28;92476;-77
2022/05/04 06:28:35;;;;;;;8.68;3.42;;;;;;;;;;5016542;28;94206;-78
2022/05/04 06:36:32;;;;;;;24.70;4.47;;;;;;;;;;5020409;28;94010;-78
2022/05/04 06:38:59;;;;;;;9.57;3.30;;;;;;;;;;5016860;27;93134;-77
2022/05/04 06:41:25;;;;;;;9.68;3.20;;;;;;;;;;5018319;28;94866;-78
2022/05/04 06:43:51;;;;;;;11.50;4.18;;;;;;;;;;5017482;28;93231;-77
2022/05/04 06:46:18;;;;;;;14.98;4.43;;;;;;;;;;5008994;28;93511;-77
2022/05/04 06:48:45;;;;;;;15.00;3.60;;;;;;;;;;5014001;28;94796;-77
2022/05/04 06:51:12;;;;;;;8.43;3.38;;;;;;;;;;5015902;28;94269;-77
2022/05/04 06:53:38;;;;;;;17.08;3.80;;;;;;;;;;5014428;28;93954;-77
2022/05/04 06:56:23;;;;;;;10.68;3.50;;;;;;;;;;5009730;28;96926;-77
2022/05/04 06:58:49;;;;;;;11.73;3.50;;;;;;;;;;5011992;28;93210;-78
2022/05/04 07:01:16;;;;;;;11.63;3.08;;;;;;;;;;5015185;28;93646;-78
2022/05/04 07:03:42;;;;;;;6.93;2.88;;;;;;;;;;5009720;28;94252;-79
2022/05/04 07:06:09;;;;;;;14.13;3.10;;;;;;;;;;5015836;28;92598;-79
2022/05/04 07:08:36;;;;;;;11.55;3.33;;;;;;;;;;5010960;28;93922;-79
2022/05/04 07:11:02;;;;;;;7.97;3.10;;;;;;;;;;5013812;28;93436;-79
2022/05/04 07:13:29;;;;;;;10.52;3.78;;;;;;;;;;5017366;28;92933;-79
2022/05/04 07:15:55;;;;;;;13.48;3.22;;;;;;;;;;5017079;28;94414;-80
2022/05/04 07:18:22;;;;;;;10.75;3.50;;;;;;;;;;5017097;28;93820;-79
2022/05/04 07:20:48;;;;;;;8.38;3.47;;;;;;;;;;5010172;27;95541;-80
2022/05/04 07:23:14;;;;;;;8.20;3.38;;;;;;;;;;5022004;28;93434;-80
2022/05/04 07:25:41;;;;;;;11.75;3.65;;;;;;;;;;5014650;28;93853;-79
2022/05/04 07:28:08;;;;;;;5.55;3.05;;;;;;;;;;5017552;28;93996;-80
2022/05/04 07:30:34;;;;;;;7.70;3.88;;;;;;;;;;5011158;27;95071;-80
2022/05/04 07:33:01;;;;;;;7.65;3.47;;;;;;;;;;5011924;28;94350;-79
2022/05/04 07:35:28;;;;;;;9.23;4.32;;;;;;;;;;5011968;28;95087;-80
2022/05/04 07:37:54;;;;;;;12.43;3.25;;;;;;;;;;5013537;28;92213;-77
2022/05/04 07:43:05;;;;;;;9.18;3.50;;;;;;;;;;5011514;28;93398;-78
2022/05/04 07:45:32;;;;;;;9.50;3.63;;;;;;;;;;5014879;28;94839;-78
2022/05/04 07:47:58;;;;;;;7.22;3.60;;;;;;;;;;5032054;28;95836;-78
2022/05/04 07:50:25;;;;;;;13.80;3.90;;;;;;;;;;5031810;28;94193;-78
2022/05/04 07:52:53;;;;;;;12.43;4.10;;;;;;;;;;5032788;28;92956;-79
2022/05/04 07:55:19;;;;;;;9.40;4.00;;;;;;;;;;5035668;28;94059;-78
2022/05/04 07:57:48;;;;;;;13.73;4.13;;;;;;;;;;5020427;28;92514;-78
2022/05/04 08:05:51;;;;;;;12.50;3.80;;;;;;;;;;5021485;27;92741;-79
2022/05/04 08:08:18;;;;;;;8.90;3.85;;;;;;;;;;5035600;28;93137;-79
2022/05/04 08:10:44;;;;;;;5.88;3.50;;;;;;;;;;5033410;28;96592;-79
2022/05/04 08:13:11;;;;;;;10.73;4.20;;;;;;;;;;5035796;28;93763;-78
2022/05/04 08:15:37;;;;;;;11.05;4.10;;;;;;;;;;5027206;28;92456;-78
2022/05/04 08:18:03;;;;;;;12.15;4.45;;;;;;;;;;5017387;28;93475;-78
2022/05/04 08:20:30;;;;;;;8.50;4.07;;;;;;;;;;5014251;28;93108;-78
2022/05/04 08:22:57;;;;;;;8.27;4.15;;;;;;;;;;5015062;28;93283;-78
2022/05/04 08:25:24;;;;;;;7.78;3.78;;;;;;;;;;5014991;28;92765;-77
2022/05/04 08:27:50;;;;;;;12.52;4.60;;;;;;;;;;5016065;28;93901;-78
2022/05/04 08:30:17;;;;;;;10.65;4.07;;;;;;;;;;5020731;27;94346;-78
2022/05/04 08:32:44;;;;;;;10.57;4.15;;;;;;;;;;5025922;27;92852;-78
2022/05/04 08:35:12;;;;;;;7.15;3.75;;;;;;;;;;5034084;28;95361;-75
2022/05/04 08:37:39;;;;;;;13.73;4.28;;;;;;;;;;5035408;28;93148;-77
2022/05/04 08:40:05;;;;;;;11.13;3.95;;;;;;;;;;5037930;28;92468;-77
2022/05/04 08:42:32;;;;;;;12.80;4.50;;;;;;;;;;5034766;28;93391;-77
2022/05/04 08:44:58;;;;;;;6.85;3.88;;;;;;;;;;5035009;28;92467;-77
2022/05/04 08:47:30;;;;;;;13.30;4.85;;;;;;;;;;5034914;28;93978;-77
2022/05/04 08:49:56;;;;;;;7.65;4.03;;;;;;;;;;5030105;28;93466;-77
2022/05/04 08:52:23;;;;;;;6.68;3.67;;;;;;;;;;5014706;28;91743;-77
2022/05/04 08:54:49;;;;;;;11.77;4.47;;;;;;;;;;5014627;28;92467;-78
2022/05/04 08:57:15;;;;;;;9.88;4.00;;;;;;;;;;5014882;28;94257;-77
2022/05/04 08:59:43;;;;;;;10.30;4.00;;;;;;;;;;5011852;28;95310;-77
2022/05/04 09:02:10;;;;;;;13.32;4.18;;;;;;;;;;5017550;28;95775;-77
2022/05/04 09:04:40;;;;;;;13.55;4.43;;;;;;;;;;5013993;28;92662;-78
2022/05/04 09:07:22;;;;;;;13.23;4.60;;;;;;;;;;5014035;28;92420;-78
2022/05/04 09:09:48;;;;;;;7.32;4.20;;;;;;;;;;5014395;28;93683;-78
2022/05/04 09:12:15;;;;;;;16.75;4.78;;;;;;;;;;5014911;28;92569;-78
2022/05/04 09:14:43;;;;;;;10.05;4.32;;;;;;;;;;5013786;28;93140;-78
2022/05/04 09:17:10;;;;;;;18.45;4.78;;;;;;;;;;5014320;28;91681;-78
2022/05/04 09:19:37;;;;;;;11.07;3.78;;;;;;;;;;5013799;28;93204;-77
2022/05/04 09:22:14;;;;;;;11.57;4.10;;;;;;;;;;5013615;28;94124;-78
2022/05/04 09:24:42;;;;;;;5.53;4.03;;;;;;;;;;5016026;28;96626;-77
2022/05/04 09:27:08;;;;;;;8.50;4.45;;;;;;;;;;5014128;28;96320;-77
2022/05/04 09:29:36;;;;;;;11.95;4.32;;;;;;;;;;5014148;28;94261;-78
2022/05/04 09:32:15;;;;;;;8.75;4.70;;;;;;;;;;5014538;28;92457;-77
2022/05/04 09:34:51;;;;;;;8.85;4.18;;;;;;;;;;5014122;28;93808;-77
2022/05/04 09:45:37;;;;;;;12.38;4.63;;;;;;;;;;5013911;28;94240;-77
2022/05/04 09:48:04;;;;;;;7.40;4.25;;;;;;;;;;5016699;28;92446;-77
2022/05/04 09:50:37;;;;;;;9.90;4.97;;;;;;;;;;5011431;28;96805;-77
2022/05/04 09:53:03;;;;;;;9.70;4.35;;;;;;;;;;5014145;28;92532;-78
2022/05/04 09:55:30;;;;;;;12.73;4.20;;;;;;;;;;5012961;28;93760;-77
2022/05/04 09:57:56;;;;;;;8.68;4.78;;;;;;;;;;5018527;28;93477;-78
2022/05/04 10:00:24;;;;;;;7.90;4.88;;;;;;;;;;5033999;28;92565;-78
2022/05/04 10:02:52;;;;;;;10.45;5.28;;;;;;;;;;5033601;28;93789;-78
2022/05/04 10:05:22;;;;;;;14.07;5.45;;;;;;;;;;5033989;28;94251;-78
2022/05/04 10:07:50;;;;;;;10.50;4.38;;;;;;;;;;5037603;28;91736;-78
2022/05/04 10:10:25;;;;;;;9.40;4.93;;;;;;;;;;5031153;28;94189;-78
2022/05/04 10:12:51;;;;;;;11.38;4.80;;;;;;;;;;5033778;28;92494;-78
2022/05/04 10:15:19;;;;;;;13.98;4.90;;;;;;;;;;5032114;28;96047;-78
2022/05/04 10:17:48;;;;;;;11.52;4.70;;;;;;;;;;5032960;28;94120;-78
2022/05/04 10:20:22;;;;;;;13.15;5.15;;;;;;;;;;5033519;28;92473;-78
2022/05/04 10:23:01;;;;;;;8.85;4.50;;;;;;;;;;5033990;28;92880;-78
2022/05/04 10:25:33;;;;;;;12.75;5.68;;;;;;;;;;5032861;28;94340;-78
2022/05/04 10:28:04;;;;;;;13.60;5.78;;;;;;;;;;5032554;27;92531;-78
2022/05/04 10:30:30;;;;;;;12.55;5.57;;;;;;;;;;5024321;28;92845;-77
2022/05/04 10:33:02;;;;;;;11.95;5.28;;;;;;;;;;5021881;28;91767;-77
2022/05/04 10:35:35;;;;;;;13.65;4.90;;;;;;;;;;5033088;28;92905;-76
2022/05/04 10:38:01;;;;;;;16.10;5.88;;;;;;;;;;5033125;28;93977;-76
2022/05/04 10:40:33;;;;;;;11.50;5.22;;;;;;;;;;5029530;28;94914;-76
2022/05/04 10:43:02;;;;;;;9.60;4.85;;;;;;;;;;5033860;28;96700;-76
2022/05/04 10:45:30;;;;;;;9.27;5.65;;;;;;;;;;5032320;28;94222;-76
2022/05/04 10:48:14;;;;;;;13.98;5.90;;;;;;;;;;5033179;28;92618;-77
2022/05/04 10:50:47;;;;;;;11.32;5.75;;;;;;;;;;5018490;28;93985;-79
2022/05/04 10:53:25;;;;;;;10.45;5.10;;;;;;;;;;5015799;28;94133;-77
2022/05/04 10:56:01;;;;;;;8.48;4.93;;;;;;;;;;5013223;28;94495;-77
2022/05/04 10:58:45;;;;;;;18.02;6.43;;;;;;;;;;5012602;28;92694;-76
2022/05/04 11:01:21;;;;;;;11.98;5.55;;;;;;;;;;5013287;28;92511;-76
2022/05/04 11:03:50;;;;;;;11.80;5.65;;;;;;;;;;5013405;28;94511;-76
2022/05/04 11:06:23;;;;;;;14.90;5.60;;;;;;;;;;5011606;28;96689;-76
2022/05/04 11:08:50;;;;;;;9.88;5.13;;;;;;;;;;5012674;28;92452;-76
2022/05/04 11:11:18;;;;;;;8.48;5.63;;;;;;;;;;5033296;28;93918;-76
2022/05/04 11:13:44;;;;;;;10.93;5.53;;;;;;;;;;5032648;28;94205;-76
2022/05/04 11:16:12;;;;;;;10.35;5.55;;;;;;;;;;5036314;28;93559;-76
2022/05/04 11:18:38;;;;;;;10.93;6.55;;;;;;;;;;5032596;28;94166;-76
2022/05/04 11:21:10;;;;;;;13.23;6.13;;;;;;;;;;5031610;28;92554;-76
2022/05/04 11:23:36;;;;;;;14.18;5.95;;;;;;;;;;5032998;28;91997;-76
2022/05/04 11:26:03;;;;;;;17.20;6.57;;;;;;;;;;5032839;28;94250;-76
2022/05/04 11:28:29;;;;;;;14.30;6.13;;;;;;;;;;5032028;28;92467;-76
2022/05/04 11:30:56;;;;;;;9.35;5.78;;;;;;;;;;5014722;28;94865;-76
2022/05/04 11:33:22;;;;;;;8.63;5.57;;;;;;;;;;5012263;28;93236;-76
2022/05/04 11:35:55;;;;;;;12.63;5.82;;;;;;;;;;5012635;28;93149;-76
2022/05/04 11:38:22;;;;;;;10.25;5.45;;;;;;;;;;5015410;28;93972;-76
2022/05/04 11:40:49;;;;;;;12.13;6.25;;;;;;;;;;5015624;28;92529;-76
2022/05/04 11:43:22;;;;;;;7.22;5.30;;;;;;;;;;5016217;28;94242;-76
2022/05/04 11:45:49;;;;;;;10.63;5.72;;;;;;;;;;5015794;28;93983;-76
2022/05/04 11:48:17;;;;;;;14.73;6.68;;;;;;;;;;5015911;28;91769;-76
2022/05/04 11:50:44;;;;;;;6.65;5.35;;;;;;;;;;5030426;28;93252;-76
2022/05/04 11:53:11;;;;;;;7.60;5.82;;;;;;;;;;5036142;28;94294;-76
2022/05/04 11:55:37;;;;;;;9.68;5.90;;;;;;;;;;5034129;27;95188;-72
2022/05/04 11:58:11;;;;;;;7.63;5.00;;;;;;;;;;5032836;28;96278;-75
2022/05/04 12:00:38;;;;;;;12.18;6.13;;;;;;;;;;5015824;28;92549;-77
2022/05/04 12:03:05;;;;;;;12.63;5.97;;;;;;;;;;5015482;28;94141;-76
2022/05/04 12:05:32;;;;;;;12.63;6.25;;;;;;;;;;5015162;28;93311;-77
2022/05/04 12:07:59;;;;;;;11.07;5.82;;;;;;;;;;5016158;28;92452;-77
2022/05/04 12:10:26;;;;;;;9.70;6.15;;;;;;;;;;5014585;28;93056;-77
2022/05/04 12:12:53;;;;;;;12.52;6.15;;;;;;;;;;5016266;28;93358;-76
2022/05/04 12:15:23;;;;;;;9.65;5.75;;;;;;;;;;5026544;28;93438;-77
2022/05/04 12:17:50;;;;;;;9.07;6.38;;;;;;;;;;5035178;28;94058;-77
2022/05/04 12:20:19;;;;;;;16.10;6.60;;;;;;;;;;5037067;28;96675;-76
2022/05/04 12:22:46;;;;;;;9.07;5.63;;;;;;;;;;5015062;28;95857;-76
2022/05/04 12:25:12;;;;;;;15.18;6.93;;;;;;;;;;5015231;28;94558;-77
2022/05/04 12:27:39;;;;;;;18.13;7.70;;;;;;;;;;5015048;28;92416;-79
2022/05/04 12:33:08;;;;;;;10.70;6.80;;;;;;;;;;5015293;28;94300;-76
2022/05/04 12:35:35;;;;;;;12.88;6.03;;;;;;;;;;5015129;28;92502;-77
2022/05/04 12:38:03;;;;;;;16.83;7.60;;;;;;;;;;5015111;28;93990;-77
2022/05/04 12:40:31;;;;;;;12.63;6.40;;;;;;;;;;5014906;28;94171;-78
2022/05/04 12:42:59;;;;;;;7.93;5.30;;;;;;;;;;5018547;28;92947;-77
2022/05/04 12:45:25;;;;;;;11.55;5.70;;;;;;;;;;4999076;28;96589;-77
2022/05/04 12:47:55;;;;;;;15.68;6.90;;;;;;;;;;4995389;28;92947;-76
2022/05/04 12:50:25;;;;;;;18.17;7.00;;;;;;;;;;4993842;28;94305;-77
2022/05/04 12:52:52;;;;;;;10.70;5.60;;;;;;;;;;4994769;28;94258;-77
2022/05/04 12:55:18;;;;;;;17.38;6.53;;;;;;;;;;4995101;28;92808;-77
2022/05/04 12:57:45;;;;;;;13.60;6.38;;;;;;;;;;4994712;28;93989;-78
2022/05/04 13:00:15;;;;;;;14.15;6.15;;;;;;;;;;4994220;28;94708;-77
2022/05/04 13:02:42;;;;;;;11.23;5.15;;;;;;;;;;4995335;28;91907;-77
2022/05/04 13:05:09;;;;;;;12.05;6.50;;;;;;;;;;4996301;28;93230;-76
2022/05/04 13:07:36;;;;;;;10.70;6.15;;;;;;;;;;4998273;28;92977;-76
2022/05/04 13:10:06;;;;;;;13.00;6.68;;;;;;;;;;5003926;28;94921;-76
2022/05/04 13:12:32;;;;;;;12.95;6.72;;;;;;;;;;5002019;28;94668;-76
2022/05/04 13:14:58;;;;;;;17.23;6.40;;;;;;;;;;4996851;28;92616;-77
2022/05/04 13:17:25;;;;;;;16.42;5.82;;;;;;;;;;4999881;28;93158;-76
2022/05/04 13:19:51;;;;;;;12.55;6.18;;;;;;;;;;4999130;28;93587;-77
2022/05/04 13:22:18;;;;;;;13.95;6.28;;;;;;;;;;5011385;28;92587;-76
2022/05/04 13:24:44;;;;;;;10.93;6.95;;;;;;;;;;5014157;28;93090;-77
2022/05/04 13:27:11;;;;;;;12.68;6.15;;;;;;;;;;5016594;28;94044;-77
2022/05/04 13:29:37;;;;;;;8.23;5.43;;;;;;;;;;5017265;28;94124;-77
2022/05/04 13:32:05;;;;;;;12.60;5.68;;;;;;;;;;5015232;28;94323;-77
2022/05/04 13:34:31;;;;;;;13.65;6.45;;;;;;;;;;5013464;28;95428;-77
2022/05/04 13:36:58;;;;;;;17.38;5.82;;;;;;;;;;5018352;28;96414;-76
2022/05/04 13:39:24;;;;;;;11.82;5.85;;;;;;;;;;5020155;28;94383;-77
2022/05/04 13:41:51;;;;;;;11.20;5.80;;;;;;;;;;5026660;27;94037;-76
2022/05/04 13:44:18;;;;;;;14.23;5.63;;;;;;;;;;5018756;27;92896;-76
2022/05/04 13:46:44;;;;;;;8.20;5.75;;;;;;;;;;5015529;28;94543;-76
2022/05/04 13:49:11;;;;;;;11.55;5.10;;;;;;;;;;5015508;28;94511;-75
2022/05/04 13:54:23;;;;;;;15.35;6.72;;;;;;;;;;5018616;28;94206;-75
2022/05/04 13:56:50;;;;;;;7.85;5.55;;;;;;;;;;5018437;28;93156;-75
2022/05/04 13:59:16;;;;;;;6.80;5.32;;;;;;;;;;5010595;28;96816;-76
2022/05/04 14:01:43;;;;;;;15.23;6.97;;;;;;;;;;5019650;28;92596;-76
2022/05/04 14:04:09;;;;;;;11.50;6.55;;;;;;;;;;5015119;28;94974;-76
2022/05/04 14:06:36;;;;;;;12.98;6.28;;;;;;;;;;5018569;28;94471;-75
2022/05/04 14:09:03;;;;;;;13.10;6.07;;;;;;;;;;5012916;28;93928;-75
2022/05/04 14:11:29;;;;;;;10.48;5.75;;;;;;;;;;5012067;28;94261;-76
2022/05/04 14:16:41;;;;;;;8.38;5.70;;;;;;;;;;5017738;28;93930;-75
2022/05/04 14:19:08;;;;;;;10.75;6.15;;;;;;;;;;5019024;27;94211;-76
2022/05/04 14:21:37;;;;;;;13.32;6.32;;;;;;;;;;5009484;28;93369;-75
2022/05/04 14:24:04;;;;;;;10.38;6.60;;;;;;;;;;5013360;28;97156;-75
2022/05/04 14:26:32;;;;;;;12.82;6.93;;;;;;;;;;5018731;28;94555;-76
2022/05/04 14:28:59;;;;;;;17.13;7.18;;;;;;;;;;5017821;28;93773;-76
2022/05/04 14:31:26;;;;;;;15.15;6.95;;;;;;;;;;5018101;28;94193;-75
2022/05/04 14:33:52;;;;;;;10.85;7.38;;;;;;;;;;5023291;28;92512;-76
2022/05/04 14:36:18;;;;;;;12.57;6.18;;;;;;;;;;5021300;28;93869;-77
2022/05/04 14:38:46;;;;;;;19.38;7.78;;;;;;;;;;5011620;27;94518;-76
2022/05/04 14:41:13;;;;;;;19.17;7.38;;;;;;;;;;5016987;28;91803;-76
2022/05/04 14:43:39;;;;;;;15.73;7.35;;;;;;;;;;5015970;28;94364;-76
2022/05/04 14:46:05;;;;;;;19.30;7.13;;;;;;;;;;5008743;28;94179;-76
2022/05/04 14:48:32;;;;;;;8.63;5.82;;;;;;;;;;5011165;28;96513;-76
2022/05/04 14:50:58;;;;;;;14.70;6.57;;;;;;;;;;5015868;28;98102;-76
2022/05/04 14:53:25;;;;;;;17.80;7.57;;;;;;;;;;5015213;28;94234;-76
2022/05/04 14:55:53;;;;;;;13.10;7.18;;;;;;;;;;5015380;28;93109;-76
2022/05/04 14:58:19;;;;;;;11.80;6.78;;;;;;;;;;5011378;28;94823;-76
2022/05/04 15:00:45;;;;;;;12.75;7.10;;;;;;;;;;5012860;28;94785;-76
2022/05/04 15:05:58;;;;;;;14.38;8.02;;;;;;;;;;5014145;28;96573;-76
2022/05/04 15:08:27;;;;;;;13.77;6.93;;;;;;;;;;5018730;27;92586;-76
2022/05/04 15:10:53;;;;;;;14.73;7.00;;;;;;;;;;5010116;28;94248;-76
2022/05/04 15:13:19;;;;;;;16.13;8.38;;;;;;;;;;5007758;28;98310;-76
2022/05/04 15:15:46;;;;;;;15.93;7.22;;;;;;;;;;5021052;28;92665;-76
2022/05/04 15:18:12;;;;;;;9.07;6.75;;;;;;;;;;5019524;28;94338;-76